Aérodrome :
LOGIN :

S'inscrire | Disclaimer

   EN    FR    IT 

 










Légende :    VFR   VFR Marginal   IFR   IFR Intensif   IFR Très Intensif
Visi : 
Plafond : 
>= 8 km
>= 3000ft
5 à 8 km
1000 à 3000 ft
1500m à 5 km
500 à 1000 ft
800 à 1500m
200 à 500 ft
< 800m
< 200 ft
Symboles :   Orages  Brouillard  Fortes neiges  Fortes précipitations  Vent > 20 kt
SIGMETs :   Divers  Orages  Givrage  Turbulence  Onde Orograph.  Cendres Volcan.







- Altitude de l'aérodrome : 622 ft
- Code IATA : BRS
- Voir les cartes d'approche


EGGD - Bristol Int.

DERNIER METAR :
  • 301220Z AUTO 19013KT 9999 NCD 17/09 Q1017

METARs EXPIRÉS :
  • 301150Z AUTO 18013KT 9999 NCD 16/10 Q1017
  • 301120Z AUTO 18012KT 150V210 9999 NCD 16/10 Q1017
  • 301050Z AUTO 17013KT 140V210 9999 NCD 15/10 Q1017
  • 301020Z AUTO 19011KT 9999 NCD 15/10 Q1017
  • 300950Z AUTO 19012KT 9999 //////TCU 13/10 Q1018

TAF TAF EGGD
Valide du 30 à 12h jusqu'au 31 à 12h UTC


301100Z 3012/3112 19015G25KT CAVOK
BECMG 3016/3019 18010KT
BECMG 3101/3104 BKN015
TEMPO 3103/3108 7000 -SHRA BKN008
BECMG 3108/3111 SCT025
ATIS : +44 1275 473 666
Pas de NOTAMs connus pour ce terrain.



MET'MAP, la Météo Aéronautique d'un coup d'oeil ! - Copyright ORBIFLY Décembre 2007 - Disclaimer

ORBIFLY MET'MAP TEAM :

Programmation & Développement : Alexandra Zaïnal
Conception & Développement : Baudouin d'Aumeries
Co-Programmation & Développement : Marc-Olivier Méhu
Soutien technique & logistique : Manuel Goepfert

Contact : metmap@orbifly.com




SOURCES & CREDITS :

   NOAA